Time;durP1;ratioP1;P1;durP2;ratioP2;P2;SDS_P1;SDS_P2;PMS_P1;PMS_P2;Temp;Humidity;BMP_temperature;BMP_pressure;BME280_temperature;BME280_humidity;BME280_pressure;Samples;Min_cycle;Max_cycle;Signal;HPM_P1;HPM_P2
2023/08/09 00:00:19;;;;;;;10.00;6.90;;;;;;;13.80;100.00;101234.96;110131;1239;61455;-71
2023/08/09 00:03:08;;;;;;;10.30;6.90;;;;;;;13.86;100.00;101235.62;110184;1237;58255;-72
2023/08/09 00:05:37;;;;;;;9.70;6.40;;;;;;;13.93;100.00;101235.88;110215;1238;63525;-71
2023/08/09 00:08:06;;;;;;;11.80;6.30;;;;;;;14.14;100.00;101236.89;110212;1238;72134;-71
2023/08/09 00:10:35;;;;;;;11.80;6.80;;;;;;;14.35;100.00;101233.25;110103;1237;70814;-71
2023/08/09 00:13:04;;;;;;;9.80;6.60;;;;;;;14.51;100.00;101237.98;110207;1238;64571;-71
2023/08/09 00:15:33;;;;;;;9.50;7.10;;;;;;;14.46;100.00;101242.02;110179;1237;60614;-70
2023/08/09 00:18:02;;;;;;;8.40;6.10;;;;;;;14.43;100.00;101242.48;110174;1237;57794;-70
2023/08/09 00:20:32;;;;;;;9.40;6.20;;;;;;;14.33;100.00;101241.13;110118;1237;63516;-70
2023/08/09 00:23:01;;;;;;;8.60;6.20;;;;;;;14.18;100.00;101241.86;110187;1237;71351;-70
2023/08/09 00:25:30;;;;;;;9.40;6.70;;;;;;;14.17;100.00;101242.96;110212;1238;59710;-71
2023/08/09 00:27:59;;;;;;;8.80;6.20;;;;;;;14.27;100.00;101236.05;110203;1238;73769;-74
2023/08/09 00:30:27;;;;;;;9.00;5.90;;;;;;;14.35;100.00;101241.50;110208;1238;63019;-72
2023/08/09 00:32:56;;;;;;;7.20;5.90;;;;;;;14.38;100.00;101238.50;110190;1238;58111;-73
2023/08/09 00:35:25;;;;;;;9.90;6.60;;;;;;;14.35;100.00;101238.92;110110;1239;63585;-73
2023/08/09 00:37:54;;;;;;;9.20;6.30;;;;;;;14.33;100.00;101238.51;110228;1238;71465;-73
2023/08/09 00:40:22;;;;;;;7.50;5.80;;;;;;;14.32;100.00;101237.34;110238;1238;60709;-75
2023/08/09 00:42:51;;;;;;;11.00;6.30;;;;;;;14.28;100.00;101239.07;109896;1236;63245;-73
2023/08/09 00:45:20;;;;;;;9.50;6.10;;;;;;;14.30;100.00;101238.55;110242;1236;58375;-72
2023/08/09 00:47:49;;;;;;;9.00;6.50;;;;;;;14.30;100.00;101242.11;110144;1238;57702;-72
2023/08/09 00:50:18;;;;;;;9.90;6.20;;;;;;;14.22;100.00;101239.89;110149;1238;71598;-76
2023/08/09 00:52:47;;;;;;;11.00;6.50;;;;;;;14.13;100.00;101236.80;110143;1238;72662;-70
2023/08/09 00:55:15;;;;;;;15.50;7.90;;;;;;;14.12;100.00;101238.66;110214;1236;70756;-70
2023/08/09 00:57:47;;;;;;;7.70;6.10;;;;;;;14.12;100.00;101240.92;110213;1237;63539;-72
2023/08/09 01:00:18;;;;;;;9.60;6.50;;;;;;;14.10;100.00;101241.93;110060;1240;58305;-71
2023/08/09 01:02:47;;;;;;;13.00;6.80;;;;;;;14.11;100.00;101235.21;110212;1237;59964;-71
2023/08/09 01:05:16;;;;;;;10.50;6.30;;;;;;;14.07;100.00;101230.77;110093;1236;64844;-71
2023/08/09 01:07:55;;;;;;;9.30;7.10;;;;;;;14.06;100.00;101224.38;110060;1238;60965;-72
2023/08/09 01:10:34;;;;;;;10.00;6.90;;;;;;;14.10;100.00;101227.55;110086;1238;70296;-73
2023/08/09 01:13:06;;;;;;;13.90;7.60;;;;;;;14.10;100.00;101227.54;110060;1237;62905;-73
2023/08/09 01:15:38;;;;;;;9.90;7.20;;;;;;;14.11;100.00;101227.13;109980;1241;61855;-71
2023/08/09 01:18:08;;;;;;;9.50;7.30;;;;;;;14.10;100.00;101230.02;110190;1236;58149;-71
2023/08/09 01:20:38;;;;;;;11.80;6.80;;;;;;;14.05;100.00;101231.77;110075;1237;64778;-71
2023/08/09 01:23:15;;;;;;;10.30;7.20;;;;;;;13.99;100.00;101237.50;109903;1238;72030;-74
2023/08/09 01:25:45;;;;;;;11.00;7.50;;;;;;;13.92;100.00;101241.55;110052;1238;60166;-71
2023/08/09 01:28:16;;;;;;;11.50;7.80;;;;;;;13.83;100.00;101234.04;109977;1237;73401;-73
2023/08/09 01:30:45;;;;;;;15.10;9.00;;;;;;;13.85;100.00;101232.38;109901;1241;57751;-72
2023/08/09 01:33:15;;;;;;;14.70;8.00;;;;;;;13.94;100.00;101228.17;110109;1238;58240;-74
2023/08/09 01:35:55;;;;;;;15.20;8.40;;;;;;;13.93;100.00;101229.95;110209;1238;72670;-74
2023/08/09 01:38:32;;;;;;;14.40;8.50;;;;;;;13.97;100.00;101224.23;109993;1238;71250;-72
2023/08/09 01:41:02;;;;;;;10.40;7.80;;;;;;;14.02;100.00;101226.77;109849;1237;59356;-73
2023/08/09 01:43:31;;;;;;;10.70;8.30;;;;;;;14.13;100.00;101228.54;109827;1242;63080;-72
2023/08/09 01:46:01;;;;;;;11.80;7.90;;;;;;;14.10;100.00;101224.46;110135;1238;58395;-74
2023/08/09 01:48:32;;;;;;;13.70;7.50;;;;;;;14.12;100.00;101230.55;110040;1237;61158;-74
2023/08/09 01:51:01;;;;;;;9.40;6.40;;;;;;;14.03;100.00;101231.77;110155;1237;74024;-74
2023/08/09 01:53:30;;;;;;;10.90;7.00;;;;;;;13.94;100.00;101234.30;110006;1237;61901;-74
2023/08/09 01:55:59;;;;;;;14.30;7.80;;;;;;;13.85;100.00;101235.29;110128;1237;59005;-74
2023/08/09 01:58:28;;;;;;;10.90;7.30;;;;;;;13.80;100.00;101237.23;110041;1238;63053;-76
2023/08/09 02:00:57;;;;;;;10.60;7.10;;;;;;;13.71;100.00;101237.09;109773;1242;58590;-74
2023/08/09 02:03:26;;;;;;;9.20;6.90;;;;;;;13.65;100.00;101240.15;110013;1238;58333;-72
2023/08/09 02:05:55;;;;;;;13.10;6.80;;;;;;;13.76;100.00;101246.33;110023;1237;63587;-71
2023/08/09 02:08:24;;;;;;;12.10;6.90;;;;;;;13.69;100.00;101241.64;109951;1239;60745;-70
2023/08/09 02:10:53;;;;;;;9.40;6.80;;;;;;;13.52;100.00;101240.29;110036;1237;70398;-71
2023/08/09 02:13:21;;;;;;;9.20;6.30;;;;;;;13.47;100.00;101240.19;110042;1238;73278;-72
2023/08/09 02:15:51;;;;;;;10.00;6.70;;;;;;;13.46;100.00;101243.91;110059;1238;62196;-71
2023/08/09 02:18:20;;;;;;;16.70;6.60;;;;;;;13.45;100.00;101244.86;110157;1238;61758;-71
2023/08/09 02:20:48;;;;;;;10.20;7.20;;;;;;;13.61;100.00;101237.67;110099;1237;74882;-71
2023/08/09 02:23:18;;;;;;;9.00;6.50;;;;;;;13.65;100.00;101242.14;110121;1237;62034;-71
2023/08/09 02:25:46;;;;;;;11.80;7.80;;;;;;;14.03;100.00;101244.95;110190;1236;70329;-71
2023/08/09 02:28:15;;;;;;;10.80;7.20;;;;;;;13.92;100.00;101250.20;110062;1238;63835;-72
2023/08/09 02:30:45;;;;;;;12.20;7.80;;;;;;;13.80;100.00;101253.56;110236;1237;58207;-72
2023/08/09 02:33:14;;;;;;;10.70;6.70;;;;;;;13.66;100.00;101251.29;110231;1237;60144;-72
2023/08/09 02:35:56;;;;;;;9.80;6.60;;;;;;;13.55;100.00;101250.06;110256;1237;73841;-70
2023/08/09 02:38:27;;;;;;;10.30;7.00;;;;;;;13.50;100.00;101252.89;110156;1238;72034;-72
2023/08/09 02:40:56;;;;;;;10.00;7.40;;;;;;;13.45;100.00;101249.41;109937;1237;70923;-71
2023/08/09 02:43:25;;;;;;;11.80;7.80;;;;;;;13.37;100.00;101253.88;110061;1237;73317;-71
2023/08/09 02:45:54;;;;;;;12.50;8.00;;;;;;;13.32;100.00;101259.33;110312;1238;62674;-71
2023/08/09 02:48:24;;;;;;;14.20;7.10;;;;;;;13.23;100.00;101257.52;110595;1235;59497;-71
2023/08/09 02:50:53;;;;;;;10.90;7.50;;;;;;;13.17;100.00;101258.30;110427;1235;64320;-71
2023/08/09 02:53:32;;;;;;;11.60;7.40;;;;;;;13.08;100.00;101261.45;110589;1235;72700;-71
2023/08/09 02:56:01;;;;;;;11.90;7.60;;;;;;;12.98;100.00;101266.14;110240;1234;70162;-72
2023/08/09 02:58:29;;;;;;;10.40;7.50;;;;;;;12.95;100.00;101270.41;110484;1235;74145;-71
2023/08/09 03:00:58;;;;;;;10.90;7.10;;;;;;;12.86;100.00;101270.19;110479;1235;58387;-72
2023/08/09 03:03:27;;;;;;;10.00;7.70;;;;;;;12.74;100.00;101275.27;110383;1235;58516;-72
2023/08/09 03:05:56;;;;;;;11.40;7.10;;;;;;;12.66;100.00;101277.64;110401;1235;71801;-72
2023/08/09 03:08:24;;;;;;;11.70;7.50;;;;;;;12.59;100.00;101281.28;110245;1235;71468;-73
2023/08/09 03:10:53;;;;;;;8.90;7.10;;;;;;;12.53;100.00;101281.68;110320;1235;59417;-72
2023/08/09 03:13:22;;;;;;;13.30;7.80;;;;;;;12.47;100.00;101283.36;110342;1234;74075;-71
2023/08/09 03:15:52;;;;;;;11.40;7.80;;;;;;;12.42;100.00;101282.46;110369;1237;58402;-71
2023/08/09 03:18:21;;;;;;;12.50;8.00;;;;;;;12.38;100.00;101289.35;110376;1235;61017;-71
2023/08/09 03:20:50;;;;;;;10.30;7.30;;;;;;;12.34;100.00;101289.86;110212;1235;74448;-71
2023/08/09 03:23:19;;;;;;;12.40;8.20;;;;;;;12.35;100.00;101295.38;110347;1235;72565;-71
2023/08/09 03:25:48;;;;;;;12.00;8.10;;;;;;;12.40;100.00;101295.16;110322;1235;60198;-72
2023/08/09 03:28:17;;;;;;;9.70;7.80;;;;;;;12.42;100.00;101296.27;110355;1235;63102;-72
2023/08/09 03:30:46;;;;;;;13.40;7.80;;;;;;;12.40;100.00;101298.67;110435;1235;58028;-72
2023/08/09 03:33:15;;;;;;;12.00;8.40;;;;;;;12.40;100.00;101299.21;110390;1235;58277;-72
2023/08/09 03:35:44;;;;;;;13.80;7.80;;;;;;;12.41;100.00;101301.02;110297;1235;73222;-73
2023/08/09 03:38:13;;;;;;;11.90;8.60;;;;;;;12.41;100.00;101300.51;110395;1234;72673;-71
2023/08/09 03:40:42;;;;;;;11.10;7.90;;;;;;;12.43;100.00;101300.40;110298;1235;69054;-70
2023/08/09 03:43:10;;;;;;;28.90;18.20;;;;;;;12.47;100.00;101303.73;110275;1235;74898;-71
2023/08/09 03:45:39;;;;;;;15.50;11.70;;;;;;;12.54;100.00;101304.85;110255;1236;63312;-71
2023/08/09 03:48:08;;;;;;;15.30;8.30;;;;;;;12.60;100.00;101306.89;110284;1236;58160;-71
2023/08/09 03:50:37;;;;;;;11.10;8.20;;;;;;;12.65;100.00;101306.69;110297;1235;62917;-71
2023/08/09 03:53:06;;;;;;;12.80;8.50;;;;;;;12.71;100.00;101311.27;110365;1235;72087;-71
2023/08/09 03:55:35;;;;;;;13.00;8.40;;;;;;;12.79;100.00;101313.73;110275;1235;71209;-71
2023/08/09 03:58:04;;;;;;;16.40;7.70;;;;;;;12.83;100.00;101315.88;110095;1238;63590;-72
2023/08/09 04:00:33;;;;;;;11.80;8.30;;;;;;;12.90;100.00;101318.34;110290;1238;57764;-72
2023/08/09 04:03:02;;;;;;;14.70;8.30;;;;;;;13.00;100.00;101316.08;110328;1235;58207;-72
2023/08/09 04:05:32;;;;;;;15.40;8.10;;;;;;;13.11;100.00;101315.41;110356;1238;63735;-72
2023/08/09 04:08:03;;;;;;;11.20;8.30;;;;;;;13.23;100.00;101314.17;110366;1238;61578;-72
2023/08/09 04:10:32;;;;;;;11.70;8.40;;;;;;;13.34;100.00;101312.32;110362;1236;59262;-72
2023/08/09 04:13:01;;;;;;;15.40;8.70;;;;;;;13.45;100.00;101315.39;110359;1238;62446;-71
2023/08/09 04:15:30;;;;;;;12.90;8.10;;;;;;;13.57;100.00;101314.96;110399;1237;62786;-71
2023/08/09 04:17:59;;;;;;;11.90;8.20;;;;;;;13.70;100.00;101314.69;110444;1238;58308;-71
2023/08/09 04:20:28;;;;;;;12.50;8.90;;;;;;;13.86;100.00;101311.91;110464;1235;62843;-71
2023/08/09 04:23:01;;;;;;;10.70;9.10;;;;;;;14.03;100.00;101311.48;110340;1235;71654;-71
2023/08/09 04:25:30;;;;;;;15.10;9.60;;;;;;;14.18;100.00;101309.61;110294;1238;60145;-71
2023/08/09 04:27:59;;;;;;;14.70;9.20;;;;;;;14.33;100.00;101315.98;110402;1235;73324;-71
2023/08/09 04:30:28;;;;;;;15.70;9.50;;;;;;;14.46;100.00;101316.71;110409;1235;63397;-72
2023/08/09 04:32:57;;;;;;;13.00;9.20;;;;;;;14.59;100.00;101318.31;110323;1235;58229;-72
2023/08/09 04:35:26;;;;;;;13.80;9.10;;;;;;;14.68;100.00;101319.21;110396;1235;73593;-72
2023/08/09 04:37:54;;;;;;;14.10;9.20;;;;;;;14.74;100.00;101319.40;110128;1235;72526;-71
2023/08/09 04:40:25;;;;;;;15.50;8.70;;;;;;;14.81;100.00;101320.94;110286;1238;59474;-71
2023/08/09 04:42:53;;;;;;;11.20;8.20;;;;;;;14.90;100.00;101319.49;110369;1235;73425;-72
2023/08/09 04:45:24;;;;;;;16.40;8.80;;;;;;;14.96;100.00;101319.93;110342;1237;57785;-73
2023/08/09 04:47:53;;;;;;;15.20;9.10;;;;;;;15.05;100.00;101320.18;110182;1238;60271;-71
2023/08/09 04:50:22;;;;;;;16.70;9.30;;;;;;;15.15;100.00;101318.23;110271;1234;74789;-71
2023/08/09 04:52:50;;;;;;;18.60;9.20;;;;;;;15.22;100.00;101317.78;110387;1236;72017;-73
2023/08/09 04:55:19;;;;;;;17.80;8.80;;;;;;;15.31;100.00;101318.24;110249;1238;58928;-72
2023/08/09 04:57:48;;;;;;;15.90;9.20;;;;;;;15.41;100.00;101323.21;110354;1234;73651;-70
2023/08/09 05:00:17;;;;;;;15.30;8.60;;;;;;;15.49;100.00;101320.98;110149;1237;58207;-70
2023/08/09 05:02:46;;;;;;;21.70;9.40;;;;;;;15.58;100.00;101326.71;110223;1237;58304;-74
2023/08/09 05:05:15;;;;;;;13.60;8.90;;;;;;;15.70;100.00;101330.66;110389;1235;63728;-74
2023/08/09 05:07:44;;;;;;;15.10;9.10;;;;;;;15.81;100.00;101330.60;110165;1235;61513;-74
2023/08/09 05:10:13;;;;;;;23.90;8.80;;;;;;;15.91;100.00;101327.96;110208;1235;59183;-75
2023/08/09 05:12:42;;;;;;;11.90;7.70;;;;;;;16.03;100.00;101325.24;110376;1235;73814;-72
2023/08/09 05:15:11;;;;;;;13.40;8.20;;;;;;;16.16;100.00;101326.59;110353;1238;58367;-72
2023/08/09 05:17:40;;;;;;;12.00;7.80;;;;;;;16.28;100.00;101331.66;110377;1235;61473;-75
2023/08/09 05:20:11;;;;;;;15.60;8.00;;;;;;;16.39;100.00;101333.66;110359;1235;74648;-75
2023/08/09 05:22:40;;;;;;;13.50;7.80;;;;;;;16.49;100.00;101324.76;110400;1236;72733;-72
2023/08/09 05:25:08;;;;;;;12.90;7.90;;;;;;;16.66;100.00;101327.77;110317;1235;70064;-72
2023/08/09 05:27:40;;;;;;;12.40;7.60;;;;;;;16.78;100.00;101331.00;110394;1235;74555;-72
2023/08/09 05:30:10;;;;;;;16.10;7.50;;;;;;;16.91;100.00;101334.23;110093;1238;57855;-73
2023/08/09 05:32:39;;;;;;;12.60;7.10;;;;;;;17.00;100.00;101332.50;110578;1234;60395;-73
2023/08/09 05:35:08;;;;;;;17.60;7.80;;;;;;;17.09;100.00;101338.44;110537;1236;74747;-74
2023/08/09 05:37:37;;;;;;;12.70;7.40;;;;;;;17.09;100.00;101340.16;110397;1234;60992;-72
2023/08/09 05:40:09;;;;;;;11.00;7.30;;;;;;;17.25;100.00;101340.87;110395;1235;58959;-73
2023/08/09 05:42:38;;;;;;;14.40;6.70;;;;;;;17.38;100.00;101341.58;110397;1234;73729;-71
2023/08/09 05:45:08;;;;;;;9.60;6.10;;;;;;;17.51;100.00;101343.77;110500;1236;57841;-74
2023/08/09 05:47:37;;;;;;;8.20;5.60;;;;;;;17.60;100.00;101348.08;110438;1235;60308;-68
2023/08/09 05:50:06;;;;;;;9.90;6.10;;;;;;;17.71;100.00;101348.27;110249;1238;73406;-68
2023/08/09 05:52:35;;;;;;;9.00;5.60;;;;;;;17.78;100.00;101345.91;110215;1235;72605;-68
2023/08/09 05:55:08;;;;;;;9.00;5.10;;;;;;;17.89;100.00;101348.02;110429;1235;61325;-68
2023/08/09 05:57:36;;;;;;;8.90;5.40;;;;;;;18.01;100.00;101348.52;110366;1235;64040;-68
2023/08/09 06:00:11;;;;;;;9.40;5.70;;;;;;;18.11;100.00;101346.45;110445;1234;62997;-69
2023/08/09 06:02:40;;;;;;;9.60;5.40;;;;;;;18.08;100.00;101342.41;110318;1235;60522;-68
2023/08/09 06:05:15;;;;;;;8.70;5.10;;;;;;;18.19;100.00;101344.65;110311;1235;64123;-70
2023/08/09 06:07:45;;;;;;;9.40;5.90;;;;;;;18.37;100.00;101344.08;110309;1235;60986;-68
2023/08/09 06:10:14;;;;;;;9.00;6.10;;;;;;;18.43;100.00;101346.48;110316;1235;70234;-67
2023/08/09 06:13:00;;;;;;;11.40;6.10;;;;;;;18.54;100.00;101347.73;110278;1235;73237;-68
2023/08/09 06:15:29;;;;;;;10.00;6.00;;;;;;;18.69;100.00;101350.98;110419;1235;62267;-68
2023/08/09 06:17:58;;;;;;;12.80;5.80;;;;;;;18.82;100.00;101352.92;110449;1235;60740;-67
2023/08/09 06:20:27;;;;;;;7.80;4.60;;;;;;;18.97;100.00;101350.77;110415;1235;73814;-68
2023/08/09 06:22:56;;;;;;;10.10;5.30;;;;;;;19.08;100.00;101353.25;110396;1235;72106;-69
2023/08/09 06:25:25;;;;;;;9.10;5.10;;;;;;;19.10;100.00;101353.73;110423;1235;69426;-70
2023/08/09 06:27:54;;;;;;;8.20;5.10;;;;;;;19.05;100.00;101352.61;110299;1235;63641;-70
2023/08/09 06:30:23;;;;;;;7.50;4.80;;;;;;;19.05;100.00;101353.88;110302;1235;62588;-70
2023/08/09 06:32:53;;;;;;;10.50;4.90;;;;;;;19.21;100.00;101353.70;110423;1235;58183;-69
2023/08/09 06:35:22;;;;;;;7.70;4.30;;;;;;;19.26;100.00;101349.85;110425;1235;63756;-69
2023/08/09 06:37:52;;;;;;;9.40;4.00;;;;;;;19.35;100.00;101348.05;110412;1235;60680;-69
2023/08/09 06:40:33;;;;;;;10.10;4.20;;;;;;;19.66;100.00;101351.85;110170;1235;70509;-69
2023/08/09 06:43:02;;;;;;;7.80;4.20;;;;;;;19.74;100.00;101350.16;110300;1235;72252;-70
2023/08/09 06:45:33;;;;;;;8.20;4.20;;;;;;;19.84;100.00;101350.81;110268;1238;58323;-69
2023/08/09 06:48:02;;;;;;;9.90;3.90;;;;;;;19.95;100.00;101354.98;110441;1234;58280;-69
2023/08/09 06:50:31;;;;;;;6.10;4.10;;;;;;;19.98;100.00;101352.01;110426;1234;63898;-70
2023/08/09 06:53:00;;;;;;;10.80;4.10;;;;;;;19.87;100.00;101349.92;110379;1235;60608;-72
2023/08/09 06:55:29;;;;;;;7.30;3.40;;;;;;;19.92;100.00;101347.86;110544;1234;58949;-75
2023/08/09 06:57:59;;;;;;;8.30;3.80;;;;;;;20.16;100.00;101349.08;110465;1235;73882;-74
2023/08/09 07:00:28;;;;;;;9.10;4.20;;;;;;;20.28;100.00;101344.80;110255;1238;58296;-74
2023/08/09 07:02:57;;;;;;;8.90;4.10;;;;;;;20.42;100.00;101342.98;110464;1233;58272;-72
2023/08/09 07:05:26;;;;;;;6.80;3.30;;;;;;;20.58;100.00;101342.80;110392;1234;62914;-73
2023/08/09 07:07:56;;;;;;;6.10;2.90;;;;;;;20.75;100.00;101341.34;110428;1235;60605;-74
2023/08/09 07:10:26;;;;;;;7.60;3.40;;;;;;;20.69;100.00;101342.86;110503;1234;70131;-74
2023/08/09 07:12:56;;;;;;;6.40;3.00;;;;;;;20.54;100.00;101338.44;110504;1234;74450;-73
2023/08/09 07:15:24;;;;;;;7.30;3.30;;;;;;;20.70;100.00;101333.41;110467;1234;61515;-73
2023/08/09 07:17:53;;;;;;;7.30;3.40;;;;;;;20.84;100.00;101337.06;110503;1233;58299;-74
2023/08/09 07:20:22;;;;;;;4.70;3.30;;;;;;;21.03;100.00;101336.92;110430;1234;64592;-73
2023/08/09 07:22:52;;;;;;;5.20;2.80;;;;;;;21.24;100.00;101341.29;110471;1234;60781;-73
2023/08/09 07:25:21;;;;;;;5.30;3.20;;;;;;;21.40;99.88;101339.55;110358;1234;58957;-74
2023/08/09 07:27:51;;;;;;;5.60;2.40;;;;;;;21.54;97.98;101338.88;110520;1234;63775;-74
2023/08/09 07:30:20;;;;;;;5.80;2.60;;;;;;;21.49;98.13;101345.13;110471;1234;58152;-74
2023/08/09 07:32:49;;;;;;;4.20;2.50;;;;;;;21.54;99.69;101342.66;110370;1235;57812;-72
2023/08/09 07:35:18;;;;;;;5.10;3.20;;;;;;;21.58;95.85;101340.09;110499;1235;73930;-73
2023/08/09 07:37:48;;;;;;;4.40;2.00;;;;;;;21.72;93.27;101337.60;110366;1235;72144;-74
2023/08/09 07:40:16;;;;;;;5.40;2.10;;;;;;;21.89;86.83;101336.47;110335;1234;60438;-74
2023/08/09 07:42:45;;;;;;;5.50;2.10;;;;;;;21.93;84.29;101339.20;110503;1234;71040;-74
2023/08/09 07:45:14;;;;;;;3.10;2.10;;;;;;;21.87;84.35;101336.67;110469;1235;58235;-74
2023/08/09 07:47:43;;;;;;;8.30;2.60;;;;;;;21.98;85.18;101333.23;110380;1234;60881;-74
2023/08/09 07:50:11;;;;;;;3.20;1.80;;;;;;;22.01;83.66;101332.89;110387;1234;73746;-74
2023/08/09 07:52:40;;;;;;;3.90;2.10;;;;;;;22.16;81.85;101335.64;110274;1234;63175;-76
2023/08/09 07:55:09;;;;;;;5.10;2.50;;;;;;;22.11;83.82;101334.02;110469;1234;59758;-75
2023/08/09 07:57:38;;;;;;;5.20;2.30;;;;;;;22.16;82.79;101330.61;110517;1234;63225;-75
2023/08/09 08:00:17;;;;;;;10.20;2.90;;;;;;;22.29;82.00;101329.86;110306;1234;59481;-75
2023/08/09 08:02:46;;;;;;;10.10;2.20;;;;;;;22.46;81.72;101331.16;110392;1234;60407;-69
2023/08/09 08:05:15;;;;;;;6.70;2.60;;;;;;;22.56;80.90;101327.98;110529;1234;65873;-73
2023/08/09 08:07:44;;;;;;;5.10;2.20;;;;;;;22.63;80.11;101326.77;110527;1234;60848;-73
2023/08/09 08:10:14;;;;;;;4.20;2.70;;;;;;;22.78;79.69;101328.63;110476;1235;59481;-74
2023/08/09 08:12:45;;;;;;;5.00;2.10;;;;;;;22.91;77.08;101328.88;110133;1234;63243;-73
2023/08/09 08:15:15;;;;;;;4.20;1.90;;;;;;;23.07;77.89;101326.90;110037;1240;60383;-72
2023/08/09 08:17:46;;;;;;;8.90;2.30;;;;;;;23.12;75.70;101326.79;110282;1234;57824;-71
2023/08/09 08:20:15;;;;;;;5.40;2.30;;;;;;;23.04;74.35;101319.76;110220;1235;62816;-69
2023/08/09 08:22:48;;;;;;;4.50;2.20;;;;;;;23.10;75.99;101317.61;110299;1235;61868;-71
2023/08/09 08:25:21;;;;;;;2.60;1.70;;;;;;;23.43;76.45;101310.73;110140;1234;69536;-69
2023/08/09 08:27:50;;;;;;;5.30;2.20;;;;;;;23.58;73.82;101312.73;110334;1234;63539;-70
2023/08/09 08:30:23;;;;;;;3.50;1.70;;;;;;;23.53;73.72;101309.92;110446;1235;58260;-72
2023/08/09 08:32:51;;;;;;;;;;;;;;;23.43;73.49;101313.54;110335;1235;61027;-73
2023/08/09 08:35:20;;;;;;;5.40;2.00;;;;;;;23.48;73.54;101308.23;110415;1234;64246;-73
2023/08/09 08:37:53;;;;;;;4.90;2.00;;;;;;;23.51;72.89;101306.40;110387;1235;61838;-72
2023/08/09 08:40:22;;;;;;;2.70;1.80;;;;;;;23.63;72.31;101309.34;110285;1235;70509;-66
2023/08/09 08:42:51;;;;;;;4.70;2.10;;;;;;;23.68;71.14;101309.20;110274;1234;73475;-73
2023/08/09 08:45:23;;;;;;;7.60;1.80;;;;;;;23.64;70.42;101310.89;110437;1235;58353;-70
2023/08/09 08:47:53;;;;;;;11.70;2.50;;;;;;;23.45;71.31;101311.05;110432;1235;57881;-69
2023/08/09 08:50:25;;;;;;;3.10;2.00;;;;;;;23.43;70.63;101309.18;110388;1234;74267;-69
2023/08/09 08:52:54;;;;;;;5.30;2.20;;;;;;;23.51;71.81;101312.51;110397;1234;72407;-72
2023/08/09 08:55:23;;;;;;;3.60;1.60;;;;;;;23.81;72.85;101314.42;110325;1233;60345;-71
2023/08/09 08:57:53;;;;;;;3.00;1.90;;;;;;;24.12;70.53;101316.30;110511;1234;72847;-69
2023/08/09 09:00:23;;;;;;;4.20;2.00;;;;;;;24.27;68.46;101311.38;110534;1236;60900;-70
2023/08/09 09:02:56;;;;;;;3.60;1.90;;;;;;;24.42;67.68;101306.39;110392;1234;61037;-71
2023/08/09 09:05:25;;;;;;;5.70;2.10;;;;;;;24.51;66.53;101306.46;110324;1234;64909;-73
2023/08/09 09:07:56;;;;;;;15.10;2.90;;;;;;;24.50;66.01;101300.70;110453;1234;61623;-71
2023/08/09 09:10:26;;;;;;;2.50;1.90;;;;;;;24.43;65.29;101299.71;110276;1234;352251;-71
2023/08/09 09:12:56;;;;;;;3.20;1.60;;;;;;;24.87;63.63;101294.36;110511;1235;73681;-72
2023/08/09 09:15:27;;;;;;;1.70;1.20;;;;;;;25.05;61.53;101294.30;110138;1239;61156;-71
2023/08/09 09:17:55;;;;;;;4.30;1.90;;;;;;;25.05;60.97;101289.38;110374;1234;58309;-74
2023/08/09 09:20:33;;;;;;;3.20;1.50;;;;;;;24.93;61.90;101286.89;110385;1234;74372;-89
2023/08/09 09:23:02;;;;;;;4.30;1.90;;;;;;;25.16;61.89;101287.20;110128;1234;61960;-71
2023/08/09 09:25:31;;;;;;;6.20;2.50;;;;;;;25.14;61.78;101283.91;110264;1233;60853;-74
2023/08/09 09:28:01;;;;;;;3.90;1.90;;;;;;;25.02;58.71;101280.41;110440;1236;63780;-75
2023/08/09 09:30:31;;;;;;;5.20;2.00;;;;;;;25.31;58.72;101278.00;110478;1236;60290;-75
2023/08/09 09:33:05;;;;;;;6.60;3.20;;;;;;;25.49;59.41;101276.20;110506;1234;61309;-74
2023/08/09 09:35:34;;;;;;;4.90;2.00;;;;;;;25.28;57.57;101274.17;110250;1235;64659;-76
2023/08/09 09:38:05;;;;;;;2.70;1.60;;;;;;;25.41;56.82;101277.12;110491;1235;71933;-73
2023/08/09 09:40:36;;;;;;;3.40;1.60;;;;;;;25.58;55.27;101273.30;110255;1234;68678;-74
2023/08/09 09:43:05;;;;;;;5.40;2.00;;;;;;;25.49;55.69;101271.24;110300;1237;62948;-73
2023/08/09 09:45:36;;;;;;;5.60;1.70;;;;;;;25.46;56.45;101264.41;110415;1236;60105;-72
2023/08/09 09:48:18;;;;;;;5.30;2.00;;;;;;;25.88;55.67;101265.94;110202;1234;61008;-74
2023/08/09 09:50:49;;;;;;;4.10;1.80;;;;;;;25.60;57.34;101258.52;110194;1235;63388;-73
2023/08/09 09:53:25;;;;;;;4.40;1.50;;;;;;;25.58;57.71;101254.23;110488;1235;62531;-74
2023/08/09 09:55:54;;;;;;;3.30;2.00;;;;;;;25.79;56.03;101258.42;110212;1235;60512;-73
2023/08/09 09:58:23;;;;;;;2.40;1.70;;;;;;;25.53;57.44;101260.96;110489;1235;62491;-74
2023/08/09 10:00:55;;;;;;;2.60;1.90;;;;;;;25.77;57.39;101257.98;110374;1238;58368;-74
2023/08/09 10:03:26;;;;;;;3.00;1.70;;;;;;;26.00;56.49;101248.48;110444;1236;57726;-73
2023/08/09 10:06:00;;;;;;;4.50;2.00;;;;;;;25.73;55.80;101248.41;110496;1233;73258;-71
2023/08/09 10:08:30;;;;;;;2.40;1.40;;;;;;;25.86;55.46;101247.30;110482;1236;62303;-71
2023/08/09 10:11:02;;;;;;;3.60;1.70;;;;;;;26.06;55.16;101247.16;110501;1233;70469;-72
2023/08/09 10:13:32;;;;;;;3.20;1.70;;;;;;;25.93;54.36;101241.82;110261;1235;65196;-70
2023/08/09 10:16:05;;;;;;;3.10;1.60;;;;;;;26.13;53.84;101235.37;110483;1236;58194;-70
2023/08/09 10:18:41;;;;;;;4.30;1.70;;;;;;;26.45;52.03;101232.77;110302;1234;57872;-70
2023/08/09 10:21:14;;;;;;;4.10;1.40;;;;;;;26.51;51.10;101226.69;110244;1236;63727;-70
2023/08/09 10:24:09;;;;;;;2.70;1.40;;;;;;;26.38;50.66;101212.43;110366;1236;61390;-70
2023/08/09 10:26:40;;;;;;;2.50;1.60;;;;;;;26.31;50.88;101219.23;110451;1236;59212;-70
2023/08/09 10:29:18;;;;;;;1.70;1.20;;;;;;;25.95;52.34;101213.88;110300;1236;63018;-70
2023/08/09 10:32:02;;;;;;;4.40;1.70;;;;;;;25.98;50.70;101209.32;110432;1236;60377;-71
2023/08/09 10:34:42;;;;;;;2.90;1.60;;;;;;;26.08;50.84;101205.98;110369;1237;57703;-71
2023/08/09 10:37:23;;;;;;;4.20;1.70;;;;;;;26.54;49.88;101204.26;110406;1234;74294;-72
2023/08/09 10:40:16;;;;;;;2.50;1.40;;;;;;;27.21;49.59;101196.00;110302;1234;72523;-72
2023/08/09 10:42:50;;;;;;;3.80;1.50;;;;;;;27.29;48.04;101193.25;110253;1234;61388;-71
2023/08/09 10:45:19;;;;;;;2.40;1.00;;;;;;;27.61;45.59;101201.45;110378;1236;63656;-71
2023/08/09 10:47:48;;;;;;;1.20;1.00;;;;;;;27.61;42.40;101202.31;110297;1238;57646;-71
2023/08/09 10:50:18;;;;;;;2.60;1.10;;;;;;;27.53;40.05;101188.84;110045;1239;60908;-71
2023/08/09 10:52:49;;;;;;;1.20;1.00;;;;;;;27.59;41.64;101189.83;110467;1234;64517;-70
2023/08/09 10:55:25;;;;;;;1.90;1.20;;;;;;;28.32;41.99;101189.06;110256;1234;72080;-71
2023/08/09 10:57:56;;;;;;;3.10;1.50;;;;;;;28.28;43.50;101191.73;110469;1233;68859;-72
2023/08/09 11:00:28;;;;;;;2.50;1.40;;;;;;;27.91;43.99;101186.42;110372;1234;64947;-71
2023/08/09 11:02:59;;;;;;;2.50;1.10;;;;;;;27.87;44.57;101185.38;110373;1236;58377;-70
2023/08/09 11:05:28;;;;;;;2.70;1.30;;;;;;;28.01;43.09;101183.61;110515;1236;58294;-72
2023/08/09 11:08:08;;;;;;;4.30;1.30;;;;;;;27.73;44.26;101182.30;110492;1236;63044;-71
2023/08/09 11:10:40;;;;;;;3.40;1.80;;;;;;;27.74;44.30;101178.95;110438;1235;71989;-71
2023/08/09 11:13:15;;;;;;;2.10;1.40;;;;;;;28.23;44.05;101176.47;110308;1235;60461;-72
2023/08/09 11:15:50;;;;;;;3.10;1.10;;;;;;;29.04;42.19;101174.11;110126;1234;73782;-72
2023/08/09 11:18:19;;;;;;;3.90;1.20;;;;;;;29.28;42.34;101178.24;110380;1237;58450;-72
2023/08/09 11:20:48;;;;;;;2.40;1.30;;;;;;;29.18;40.96;101175.00;110555;1234;58284;-73
2023/08/09 11:23:17;;;;;;;2.10;1.20;;;;;;;28.99;40.47;101172.69;110506;1234;73145;-72